createdAt,value
2018-04-20T00:00:35.875Z,13.30
2018-04-20T00:03:05.043Z,13.20
2018-04-20T00:05:33.255Z,13.10
2018-04-20T00:08:02.215Z,13.10
2018-04-20T00:10:34.307Z,13.10
2018-04-20T00:13:03.592Z,13.10
2018-04-20T00:15:31.771Z,13.00
2018-04-20T00:18:00.007Z,13.20
2018-04-20T00:20:28.225Z,13.10
2018-04-20T00:22:56.423Z,13.10
2018-04-20T00:25:25.940Z,13.10
2018-04-20T00:27:54.558Z,13.10
2018-04-20T00:30:22.768Z,13.10
2018-04-20T00:32:51.042Z,12.90
2018-04-20T00:35:20.046Z,12.90
2018-04-20T00:37:49.003Z,12.90
2018-04-20T00:40:17.279Z,12.90
2018-04-20T00:42:45.535Z,12.90
2018-04-20T00:45:13.815Z,12.80
2018-04-20T00:47:42.752Z,12.80
2018-04-20T00:50:11.053Z,12.80
2018-04-20T00:52:39.254Z,12.80
2018-04-20T00:55:07.524Z,12.80
2018-04-20T00:57:35.827Z,12.80
2018-04-20T01:00:04.022Z,12.80
2018-04-20T01:02:33.484Z,12.70
2018-04-20T01:05:01.778Z,12.70
2018-04-20T01:07:29.955Z,12.60
2018-04-20T01:09:58.191Z,12.60
2018-04-20T01:12:26.529Z,12.50
2018-04-20T01:14:54.835Z,12.40
2018-04-20T01:17:23.894Z,12.30
2018-04-20T01:19:52.083Z,12.20
2018-04-20T01:22:21.162Z,12.10
2018-04-20T01:24:49.422Z,12.20
2018-04-20T01:27:17.619Z,12.00
2018-04-20T01:29:45.835Z,12.00
2018-04-20T01:32:16.504Z,12.10
2018-04-20T01:34:44.722Z,12.10
2018-04-20T01:37:13.696Z,12.00
2018-04-20T01:39:42.047Z,12.00
2018-04-20T01:42:10.207Z,12.00
2018-04-20T01:44:38.435Z,12.00
2018-04-20T01:47:07.451Z,12.10
2018-04-20T01:49:35.697Z,12.00
2018-04-20T01:52:04.700Z,11.90
2018-04-20T01:54:33.891Z,11.80
2018-04-20T01:57:02.950Z,11.80
2018-04-20T01:59:31.196Z,11.80
2018-04-20T02:01:59.414Z,11.80
2018-04-20T02:04:27.763Z,11.80
2018-04-20T02:06:56.031Z,11.80
2018-04-20T02:09:24.255Z,11.60
2018-04-20T02:11:52.450Z,11.70
2018-04-20T02:14:21.443Z,11.50
2018-04-20T02:16:50.618Z,11.50
2018-04-20T02:19:18.822Z,11.50
2018-04-20T02:21:47.887Z,11.40
2018-04-20T02:24:16.119Z,11.40
2018-04-20T02:26:44.363Z,11.50
2018-04-20T02:29:13.535Z,11.40
2018-04-20T02:31:41.769Z,11.30
2018-04-20T02:34:10.003Z,11.40
2018-04-20T02:36:39.186Z,11.40
2018-04-20T02:39:08.717Z,11.40
2018-04-20T02:41:37.707Z,11.20
2018-04-20T02:44:06.727Z,11.20
2018-04-20T02:46:35.759Z,11.20
2018-04-20T02:49:03.967Z,11.20
2018-04-20T02:51:32.935Z,11.10
2018-04-20T02:54:01.241Z,11.10
2018-04-20T02:56:30.233Z,11.10
2018-04-20T02:58:59.367Z,11.10
2018-04-20T03:01:28.943Z,11.10
2018-04-20T03:03:57.907Z,11.10
2018-04-20T03:06:27.339Z,11.10
2018-04-20T03:08:56.347Z,11.10
2018-04-20T03:11:24.571Z,11.10
2018-04-20T03:13:52.767Z,11.20
2018-04-20T03:16:21.216Z,11.20
2018-04-20T03:18:49.420Z,11.20
2018-04-20T03:21:17.753Z,11.20
2018-04-20T03:23:45.983Z,11.10
2018-04-20T03:26:14.951Z,11.10
2018-04-20T03:28:43.161Z,11.10
2018-04-20T03:31:12.133Z,11.00
2018-04-20T03:33:40.395Z,11.00
2018-04-20T03:36:08.599Z,11.00
2018-04-20T03:38:37.595Z,10.90
2018-04-20T03:41:06.565Z,10.90
2018-04-20T03:43:34.763Z,10.80
2018-04-20T03:46:03.755Z,10.80
2018-04-20T03:48:32.719Z,10.80
2018-04-20T03:51:00.978Z,10.70
2018-04-20T03:53:29.203Z,10.70
2018-04-20T03:55:57.421Z,10.70
2018-04-20T03:58:25.623Z,10.60
2018-04-20T04:00:53.858Z,10.60
2018-04-20T04:03:22.108Z,10.50
2018-04-20T04:05:50.322Z,10.50
2018-04-20T04:08:18.819Z,10.60
2018-04-20T04:10:47.084Z,10.50
2018-04-20T04:13:15.306Z,10.40
2018-04-20T04:15:44.300Z,10.40
2018-04-20T04:18:25.032Z,10.30
2018-04-20T04:20:59.963Z,10.40
2018-04-20T04:23:39.947Z,10.40
2018-04-20T04:26:21.042Z,10.30
2018-04-20T04:28:49.991Z,10.30
2018-04-20T04:31:18.274Z,10.30
2018-04-20T04:33:46.489Z,10.30
2018-04-20T04:36:14.728Z,10.30
2018-04-20T04:38:43.083Z,10.30
2018-04-20T04:41:11.327Z,10.30
2018-04-20T04:43:39.528Z,10.30
2018-04-20T04:46:07.763Z,10.30
2018-04-20T04:48:36.348Z,10.30
2018-04-20T04:51:04.563Z,10.30
2018-04-20T04:53:32.768Z,10.40
2018-04-20T04:56:00.987Z,10.40
2018-04-20T04:58:29.235Z,10.40
2018-04-20T05:00:58.197Z,10.40
2018-04-20T05:03:26.489Z,10.40
2018-04-20T05:05:54.745Z,10.40
2018-04-20T05:08:24.185Z,10.50
2018-04-20T05:10:53.219Z,10.70
2018-04-20T05:13:21.475Z,10.60
2018-04-20T05:18:20.436Z,10.80
2018-04-20T05:20:48.636Z,10.80
2018-04-20T05:23:17.772Z,11.00
2018-04-20T05:25:46.068Z,11.00
2018-04-20T05:28:14.263Z,11.10
2018-04-20T05:30:42.520Z,11.20
2018-04-20T05:33:10.954Z,11.40
2018-04-20T05:35:39.273Z,11.40
2018-04-20T05:38:07.519Z,11.50
2018-04-20T05:40:35.842Z,11.60
2018-04-20T05:43:04.083Z,11.80
2018-04-20T05:45:32.359Z,11.90
2018-04-20T05:48:00.592Z,12.00
2018-04-20T05:50:29.667Z,12.20
2018-04-20T05:52:57.957Z,12.10
2018-04-20T05:55:26.264Z,12.20
2018-04-20T05:57:55.407Z,12.40
2018-04-20T06:00:23.656Z,12.50
2018-04-20T06:02:51.868Z,12.50
2018-04-20T06:05:20.067Z,12.60
2018-04-20T06:07:49.113Z,12.80
2018-04-20T06:10:17.464Z,12.80
2018-04-20T06:12:45.667Z,12.80
2018-04-20T06:15:13.880Z,12.90
2018-04-20T06:17:42.226Z,13.00
2018-04-20T06:20:11.139Z,13.30
2018-04-20T06:22:39.415Z,13.30
2018-04-20T06:25:08.539Z,13.40
2018-04-20T06:27:37.611Z,13.80
2018-04-20T06:30:05.971Z,13.80
2018-04-20T06:32:34.271Z,14.10
2018-04-20T06:35:02.451Z,14.20
2018-04-20T06:37:31.436Z,14.70
2018-04-20T06:39:59.779Z,14.70
2018-04-20T06:42:28.013Z,14.80
2018-04-20T06:44:56.983Z,15.10
2018-04-20T06:47:25.246Z,15.10
2018-04-20T06:49:53.446Z,15.30
2018-04-20T06:52:22.469Z,15.30
2018-04-20T06:54:50.765Z,15.30
2018-04-20T06:57:18.971Z,15.40
2018-04-20T06:59:47.163Z,15.50
2018-04-20T07:02:16.214Z,16.00
2018-04-20T07:04:44.472Z,16.00
2018-04-20T07:07:12.767Z,16.20
2018-04-20T07:09:41.039Z,16.40
2018-04-20T07:12:09.280Z,16.60
2018-04-20T07:14:37.466Z,16.80
2018-04-20T07:17:05.704Z,17.10
2018-04-20T07:19:33.927Z,17.30
2018-04-20T07:22:02.157Z,17.40
2018-04-20T07:24:30.468Z,17.70
2018-04-20T07:26:58.663Z,18.00
2018-04-20T07:29:26.928Z,18.00
2018-04-20T07:31:55.198Z,18.10
2018-04-20T07:34:23.382Z,18.50
2018-04-20T07:36:51.643Z,19.20
2018-04-20T07:39:19.899Z,20.50
2018-04-20T07:41:48.860Z,22.00
2018-04-20T07:44:17.308Z,22.00
2018-04-20T07:46:45.604Z,23.50
2018-04-20T07:49:13.800Z,23.80
2018-04-20T07:51:42.019Z,25.30
2018-04-20T07:54:10.289Z,26.30
2018-04-20T07:56:38.503Z,27.30
2018-04-20T07:59:06.699Z,28.40
2018-04-20T08:01:34.927Z,29.20
2018-04-20T08:04:03.115Z,29.50
2018-04-20T08:06:31.366Z,29.60
2018-04-20T08:09:00.399Z,30.50
2018-04-20T08:11:28.587Z,30.40
2018-04-20T08:13:56.885Z,30.40
2018-04-20T08:16:25.135Z,31.50
2018-04-20T08:18:53.319Z,31.70
2018-04-20T08:21:21.515Z,30.50
2018-04-20T08:23:50.482Z,31.30
2018-04-20T08:26:18.744Z,31.30
2018-04-20T08:28:46.939Z,30.30
2018-04-20T08:31:15.307Z,29.60
2018-04-20T08:33:43.531Z,29.30
2018-04-20T08:36:11.720Z,27.30
2018-04-20T08:38:39.943Z,27.10
2018-04-20T08:41:08.157Z,27.10
2018-04-20T08:43:37.151Z,27.40
2018-04-20T08:46:05.373Z,27.30
2018-04-20T08:48:33.696Z,27.00
2018-04-20T08:51:02.697Z,26.30
2018-04-20T08:53:33.064Z,26.00
2018-04-20T08:56:01.252Z,25.90
2018-04-20T08:58:29.448Z,25.70
2018-04-20T09:00:57.792Z,24.30
2018-04-20T09:03:25.979Z,24.60
2018-04-20T09:05:54.172Z,25.00
2018-04-20T09:08:22.387Z,25.30
2018-04-20T09:10:51.409Z,24.90
2018-04-20T09:13:19.679Z,24.90
2018-04-20T09:15:48.906Z,24.80
2018-04-20T09:18:17.335Z,24.50
2018-04-20T09:20:45.572Z,24.10
2018-04-20T09:23:13.972Z,24.50
2018-04-20T09:25:42.155Z,24.30
2018-04-20T09:28:10.442Z,24.30
2018-04-20T09:30:38.692Z,24.40
2018-04-20T09:33:07.716Z,24.60
2018-04-20T09:35:36.000Z,24.60
2018-04-20T09:38:04.216Z,24.50
2018-04-20T09:40:32.411Z,24.20
2018-04-20T09:43:01.403Z,24.60
2018-04-20T09:45:30.477Z,24.60
2018-04-20T09:47:58.672Z,24.50
2018-04-20T09:50:27.639Z,24.90
2018-04-20T09:52:55.839Z,24.90
2018-04-20T09:55:24.796Z,25.10
2018-04-20T09:57:53.063Z,25.00
2018-04-20T10:00:21.306Z,25.50
2018-04-20T10:02:49.844Z,25.70
2018-04-20T10:05:23.955Z,26.00
2018-04-20T10:07:52.247Z,26.20
2018-04-20T10:10:20.496Z,25.90
2018-04-20T10:12:48.849Z,25.60
2018-04-20T10:15:17.651Z,25.60
2018-04-20T10:17:46.148Z,25.50
2018-04-20T10:20:15.188Z,25.50
2018-04-20T10:22:44.191Z,25.50
2018-04-20T10:25:12.375Z,25.50
2018-04-20T10:30:06.560Z,25.90
2018-04-20T10:32:35.526Z,26.40
2018-04-20T10:35:03.731Z,26.40
2018-04-20T10:37:32.851Z,26.30
2018-04-20T10:40:01.099Z,26.20
2018-04-20T10:42:30.206Z,26.10
2018-04-20T10:44:59.222Z,26.30
2018-04-20T10:47:27.437Z,26.30
2018-04-20T10:49:55.732Z,26.40
2018-04-20T10:52:23.991Z,26.30
2018-04-20T10:54:52.207Z,26.60
2018-04-20T10:57:20.399Z,27.10
2018-04-20T10:59:48.627Z,27.30
2018-04-20T11:02:16.823Z,27.20
2018-04-20T11:04:45.878Z,27.40
2018-04-20T11:07:14.243Z,27.40
2018-04-20T11:09:42.464Z,27.40
2018-04-20T11:12:11.492Z,27.50
2018-04-20T11:14:42.320Z,27.50
2018-04-20T11:17:10.516Z,27.80
2018-04-20T11:19:38.829Z,27.70
2018-04-20T11:22:07.047Z,28.40
2018-04-20T11:24:35.296Z,28.20
2018-04-20T11:27:04.310Z,27.80
2018-04-20T11:29:32.501Z,27.80
2018-04-20T11:32:00.703Z,27.70
2018-04-20T11:34:29.055Z,27.10
2018-04-20T11:36:57.328Z,27.30
2018-04-20T11:39:25.641Z,27.00
2018-04-20T11:41:53.963Z,26.80
2018-04-20T11:44:22.167Z,26.90
2018-04-20T11:46:50.395Z,27.00
2018-04-20T11:49:19.399Z,27.30
2018-04-20T11:51:48.359Z,27.30
2018-04-20T11:54:16.548Z,27.30
2018-04-20T11:56:45.595Z,28.10
2018-04-20T11:59:13.908Z,28.10
2018-04-20T12:01:42.121Z,28.30
2018-04-20T12:04:10.395Z,28.70
2018-04-20T12:06:38.587Z,28.90
2018-04-20T12:09:06.892Z,28.70
2018-04-20T12:11:35.224Z,28.70
2018-04-20T12:14:03.472Z,28.90
2018-04-20T12:16:31.796Z,29.00
2018-04-20T12:19:01.390Z,28.20
2018-04-20T12:21:29.761Z,28.00
2018-04-20T12:23:58.918Z,28.60
2018-04-20T12:26:28.895Z,28.60
2018-04-20T12:28:57.840Z,28.40
2018-04-20T12:31:26.048Z,28.30
2018-04-20T12:33:55.095Z,28.90
2018-04-20T12:36:23.479Z,28.90
2018-04-20T12:38:51.702Z,29.10
2018-04-20T12:41:19.988Z,29.40
2018-04-20T12:43:48.322Z,29.30
2018-04-20T12:46:16.512Z,29.10
2018-04-20T12:48:45.515Z,28.50
2018-04-20T12:51:13.789Z,28.50
2018-04-20T12:53:41.912Z,29.00
2018-04-20T12:56:10.178Z,29.40
2018-04-20T12:58:39.307Z,30.40
2018-04-20T13:01:07.719Z,30.90
2018-04-20T13:03:35.947Z,31.30
2018-04-20T13:06:04.905Z,31.50
2018-04-20T13:08:33.567Z,31.50
2018-04-20T13:11:01.719Z,31.80
2018-04-20T13:13:29.905Z,32.20
2018-04-20T13:15:59.058Z,33.50
2018-04-20T13:18:28.113Z,34.00
2018-04-20T13:20:56.266Z,34.00
2018-04-20T13:23:25.239Z,36.50
2018-04-20T13:25:53.427Z,36.40
2018-04-20T13:28:22.406Z,35.90
2018-04-20T13:30:50.655Z,35.90
2018-04-20T13:33:18.849Z,35.30
2018-04-20T13:35:47.526Z,36.10
2018-04-20T13:38:15.794Z,35.90
2018-04-20T13:40:43.991Z,36.90
2018-04-20T13:43:12.195Z,37.60
2018-04-20T13:45:41.276Z,36.90
2018-04-20T13:48:09.467Z,37.20
2018-04-20T13:50:37.631Z,37.00
2018-04-20T13:53:06.199Z,36.20
2018-04-20T13:55:34.467Z,36.80
2018-04-20T13:58:02.739Z,36.30
2018-04-20T14:00:30.991Z,35.80
2018-04-20T14:03:00.227Z,38.00
2018-04-20T14:05:29.236Z,39.50
2018-04-20T14:07:57.503Z,39.50
2018-04-20T14:10:25.827Z,38.90
2018-04-20T14:12:54.808Z,40.10
2018-04-20T14:15:23.060Z,40.00
2018-04-20T14:17:51.287Z,39.50
2018-04-20T14:20:19.677Z,39.30
2018-04-20T14:22:47.904Z,39.20
2018-04-20T14:25:16.171Z,39.50
2018-04-20T14:27:44.444Z,38.90
2018-04-20T14:30:12.642Z,38.40
2018-04-20T14:32:41.167Z,38.10
2018-04-20T14:35:09.399Z,39.00
2018-04-20T14:37:37.595Z,38.20
2018-04-20T14:40:06.611Z,36.50
2018-04-20T14:42:34.821Z,36.40
2018-04-20T14:45:03.063Z,37.60
2018-04-20T14:47:31.293Z,37.40
2018-04-20T14:49:59.588Z,35.20
2018-04-20T14:52:28.586Z,34.90
2018-04-20T14:54:58.901Z,34.00
2018-04-20T14:57:27.902Z,33.50
2018-04-20T14:59:56.923Z,33.10
2018-04-20T15:02:25.319Z,33.10
2018-04-20T15:04:53.524Z,33.10
2018-04-20T15:07:22.480Z,32.40
2018-04-20T15:09:50.723Z,32.30
2018-04-20T15:12:18.958Z,31.90
2018-04-20T15:14:47.157Z,30.70
2018-04-20T15:17:16.236Z,30.70
2018-04-20T15:19:44.472Z,30.60
2018-04-20T15:22:12.717Z,30.90
2018-04-20T15:24:41.800Z,30.40
2018-04-20T15:27:09.972Z,30.40
2018-04-20T15:29:38.162Z,30.30
2018-04-20T15:32:07.167Z,30.40
2018-04-20T15:34:35.635Z,30.40
2018-04-20T15:37:04.675Z,30.60
2018-04-20T15:39:32.935Z,30.60
2018-04-20T15:42:01.228Z,30.10
2018-04-20T15:44:29.447Z,30.00
2018-04-20T15:46:58.491Z,30.80
2018-04-20T15:49:26.914Z,30.70
2018-04-20T15:51:55.251Z,30.60
2018-04-20T15:54:23.495Z,30.50
2018-04-20T15:56:51.687Z,30.50
2018-04-20T15:59:19.932Z,30.60
2018-04-20T16:01:52.675Z,30.50
2018-04-20T16:04:20.884Z,30.50
2018-04-20T16:06:49.884Z,29.30
2018-04-20T16:09:19.024Z,29.10
2018-04-20T16:11:47.236Z,29.00
2018-04-20T16:14:15.581Z,29.00
2018-04-20T16:16:44.851Z,28.80
2018-04-20T16:19:13.092Z,28.80
2018-04-20T16:21:41.307Z,28.80
2018-04-20T16:24:09.538Z,28.70
2018-04-20T16:26:37.775Z,28.50
2018-04-20T16:29:05.987Z,28.50
2018-04-20T16:31:34.366Z,28.40
2018-04-20T16:34:02.607Z,28.10
2018-04-20T16:36:30.999Z,28.20
2018-04-20T16:38:59.314Z,28.30
2018-04-20T16:41:27.484Z,28.20
2018-04-20T16:43:56.479Z,28.10
2018-04-20T16:46:25.670Z,28.00
2018-04-20T16:48:54.988Z,27.90
2018-04-20T16:51:23.991Z,27.90
2018-04-20T16:53:52.303Z,27.90
2018-04-20T16:56:20.503Z,27.80
2018-04-20T16:58:48.743Z,27.70
2018-04-20T17:01:17.096Z,27.70
2018-04-20T17:03:45.359Z,27.60
2018-04-20T17:06:14.435Z,27.50
2018-04-20T17:08:42.847Z,27.40
2018-04-20T17:11:11.035Z,27.30
2018-04-20T17:13:39.235Z,27.30
2018-04-20T17:16:07.488Z,27.30
2018-04-20T17:18:35.767Z,27.30
2018-04-20T17:21:04.009Z,27.20
2018-04-20T17:23:32.369Z,27.20
2018-04-20T17:26:00.625Z,27.10
2018-04-20T17:28:31.355Z,27.10
2018-04-20T17:31:00.396Z,26.90
